Time;durP1;ratioP1;P1;durP2;ratioP2;P2;SDS_P1;SDS_P2;PMS_P1;PMS_P2;Temp;Humidity;BMP_temperature;BMP_pressure;BME280_temperature;BME280_humidity;BME280_pressure;Samples;Min_cycle;Max_cycle;Signal;HPM_P1;HPM_P2
2022/06/20 00:00:07;;;;;;;11.47;10.30;;;;;;;26.99;53.04;158316.84;5007907;28;20458;-79
2022/06/20 00:02:38;;;;;;;11.30;10.10;;;;;;;26.97;53.46;158311.63;4992628;28;20442;-80
2022/06/20 00:05:06;;;;;;;12.77;10.90;;;;;;;26.91;53.79;158295.88;5004058;28;20484;-80
2022/06/20 00:07:33;;;;;;;15.07;10.80;;;;;;;26.88;54.21;158288.00;5009221;28;20968;-80
2022/06/20 00:09:59;;;;;;;15.60;10.00;;;;;;;26.92;53.87;158298.53;4992828;28;20959;-79
2022/06/20 00:12:27;;;;;;;15.17;10.30;;;;;;;26.85;55.08;158280.16;5011188;28;20491;-79
2022/06/20 00:14:59;;;;;;;11.40;10.27;;;;;;;26.81;54.98;158269.69;4999293;28;20477;-79
2022/06/20 00:17:26;;;;;;;14.00;10.47;;;;;;;26.78;55.46;158261.81;5013303;28;20792;-79
2022/06/20 00:19:53;;;;;;;13.33;10.77;;;;;;;26.78;54.99;158263.13;5013115;28;20516;-79
2022/06/20 00:22:20;;;;;;;14.43;11.20;;;;;;;26.77;55.11;158260.50;5012842;28;20452;-79
2022/06/20 00:24:47;;;;;;;13.30;10.47;;;;;;;26.71;55.47;158244.78;5010931;28;20858;-79
2022/06/20 00:27:13;;;;;;;11.90;10.80;;;;;;;26.71;55.78;158243.44;5004413;28;20452;-79
2022/06/20 00:29:42;;;;;;;12.33;10.40;;;;;;;26.82;55.12;158273.59;5012203;28;20497;-79
2022/06/20 00:32:11;;;;;;;11.97;10.77;;;;;;;26.83;54.67;158274.91;5011868;28;20910;-79
2022/06/20 00:34:38;;;;;;;11.53;10.33;;;;;;;26.48;56.04;158185.81;5027731;28;20936;-79
2022/06/20 00:37:06;;;;;;;13.43;11.00;;;;;;;26.43;56.27;158172.72;5012998;28;20896;-79
2022/06/20 00:39:33;;;;;;;15.73;10.73;;;;;;;26.35;56.79;158150.44;5011952;28;20468;-80
2022/06/20 00:42:00;;;;;;;15.87;10.60;;;;;;;26.33;56.35;158146.53;5011639;28;20502;-79
2022/06/20 00:44:31;;;;;;;12.33;11.13;;;;;;;26.34;57.28;158149.16;5008469;28;20445;-79
2022/06/20 00:47:01;;;;;;;11.00;9.87;;;;;;;26.33;56.38;158146.53;5008414;28;20441;-80
2022/06/20 00:49:31;;;;;;;10.77;9.77;;;;;;;26.33;56.14;158146.53;5016059;28;20485;-80
2022/06/20 00:52:03;;;;;;;12.83;10.27;;;;;;;26.34;57.36;158149.16;4992207;28;20469;-79
2022/06/20 00:54:35;;;;;;;12.80;10.37;;;;;;;26.38;57.28;158158.31;5001503;28;20502;-80
2022/06/20 00:57:04;;;;;;;13.67;10.70;;;;;;;26.42;56.66;158170.06;5011215;28;20567;-79
2022/06/20 00:59:34;;;;;;;11.43;10.27;;;;;;;26.36;57.14;158154.41;5028138;28;20815;-79
2022/06/20 01:02:01;;;;;;;14.00;10.17;;;;;;;26.31;57.46;158141.31;5012004;28;20543;-80
2022/06/20 01:04:34;;;;;;;14.53;10.70;;;;;;;26.29;57.62;158136.03;5009180;28;20449;-80
2022/06/20 01:07:03;;;;;;;12.50;11.20;;;;;;;26.36;57.01;158153.06;5022889;28;20931;-79
2022/06/20 01:09:34;;;;;;;16.20;11.00;;;;;;;26.37;58.10;158156.97;4993167;28;20517;-79
2022/06/20 01:12:02;;;;;;;11.80;9.97;;;;;;;26.47;59.23;158181.91;5010155;28;20468;-80
2022/06/20 01:14:33;;;;;;;23.40;14.10;;;;;;;26.34;67.66;158149.16;5013875;28;20512;-80
2022/06/20 01:17:02;;;;;;;21.03;11.50;;;;;;;25.99;72.08;158057.44;4992921;28;20437;-80
2022/06/20 01:19:36;;;;;;;16.50;12.97;;;;;;;25.90;74.11;158035.19;5002073;28;20851;-84
2022/06/20 01:22:07;;;;;;;14.00;11.43;;;;;;;25.84;76.32;158018.19;5025915;28;20479;-83
2022/06/20 01:24:43;;;;;;;14.33;11.60;;;;;;;25.72;78.91;157986.72;5026932;28;20468;-82
2022/06/20 01:27:17;;;;;;;14.87;12.27;;;;;;;25.68;78.68;157977.56;5027266;28;20777;-83
2022/06/20 01:29:44;;;;;;;13.10;11.47;;;;;;;25.51;78.65;157933.06;5026437;28;20464;-82
2022/06/20 01:32:11;;;;;;;13.70;11.80;;;;;;;25.38;79.76;157900.31;5026143;28;20859;-83
2022/06/20 01:34:38;;;;;;;16.93;11.33;;;;;;;25.27;79.91;157871.53;5010427;28;20449;-83
2022/06/20 01:37:26;;;;;;;13.30;11.90;;;;;;;25.20;81.79;157853.22;5009046;28;20500;-83
2022/06/20 01:39:54;;;;;;;12.93;10.67;;;;;;;25.17;81.86;157845.34;5026356;28;20441;-83
2022/06/20 01:42:23;;;;;;;15.53;12.00;;;;;;;25.15;81.70;157840.09;5011269;28;20607;-82
2022/06/20 01:44:52;;;;;;;16.63;11.47;;;;;;;25.06;82.70;157815.25;5011508;28;20510;-83
2022/06/20 01:47:19;;;;;;;14.03;11.67;;;;;;;25.02;82.77;157804.78;5011035;28;20483;-83
2022/06/20 01:49:48;;;;;;;18.03;12.03;;;;;;;24.98;83.21;157795.63;5027344;28;20487;-82
2022/06/20 01:52:18;;;;;;;15.70;11.70;;;;;;;24.96;81.47;157789.09;5010825;28;20473;-83
2022/06/20 01:54:47;;;;;;;11.67;10.67;;;;;;;24.89;82.62;157772.03;5008498;28;20447;-83
2022/06/20 01:57:14;;;;;;;16.17;11.43;;;;;;;24.83;81.42;157756.38;5008985;28;20499;-82
2022/06/20 01:59:48;;;;;;;17.00;11.83;;;;;;;24.85;81.92;157760.28;4993726;28;20786;-83
2022/06/20 02:02:15;;;;;;;14.17;11.47;;;;;;;24.80;83.28;157749.84;5003330;28;20452;-83
2022/06/20 02:04:42;;;;;;;13.40;10.80;;;;;;;24.83;83.08;157756.38;5010234;28;20534;-82
2022/06/20 02:07:11;;;;;;;19.43;12.03;;;;;;;24.83;81.85;157757.66;5009216;28;20514;-83
2022/06/20 02:09:40;;;;;;;13.57;11.90;;;;;;;24.83;81.32;157755.06;5010921;28;20867;-83
2022/06/20 02:12:08;;;;;;;15.37;11.77;;;;;;;24.79;81.34;157747.22;5022908;28;20509;-83
2022/06/20 02:14:37;;;;;;;12.57;11.13;;;;;;;24.78;80.47;157743.25;5016055;28;20548;-83
2022/06/20 02:17:08;;;;;;;13.07;10.47;;;;;;;24.74;80.60;157732.75;5027137;28;20441;-83
2022/06/20 02:19:38;;;;;;;18.27;11.27;;;;;;;24.70;81.42;157722.31;5026765;28;20889;-83
2022/06/20 02:22:08;;;;;;;12.13;10.93;;;;;;;24.72;81.71;157727.53;5026353;28;20948;-83
2022/06/20 02:24:38;;;;;;;13.43;12.10;;;;;;;24.68;81.45;157717.06;5025355;28;20983;-83
2022/06/20 02:27:09;;;;;;;15.30;11.70;;;;;;;24.68;80.71;157717.06;5010127;28;20464;-83
2022/06/20 02:29:36;;;;;;;14.37;11.57;;;;;;;24.67;81.02;157715.78;5009371;28;20456;-83
2022/06/20 02:32:08;;;;;;;13.20;10.87;;;;;;;24.64;80.12;157706.63;5027168;28;20556;-83
2022/06/20 02:34:35;;;;;;;15.70;12.60;;;;;;;24.62;81.24;157701.38;5025702;28;20495;-83
2022/06/20 02:37:04;;;;;;;16.53;12.27;;;;;;;24.62;80.35;157701.38;5011580;28;20463;-83
2022/06/20 02:39:31;;;;;;;16.47;12.23;;;;;;;24.60;80.56;157696.13;5025657;28;20445;-82
2022/06/20 02:42:03;;;;;;;13.33;12.00;;;;;;;24.54;81.00;157680.47;5025723;28;20459;-83
2022/06/20 02:44:30;;;;;;;20.43;12.73;;;;;;;24.44;82.50;157654.25;5009096;28;21049;-83
2022/06/20 02:46:57;;;;;;;16.67;13.30;;;;;;;24.42;81.97;157650.34;5025422;28;20437;-83
2022/06/20 02:49:27;;;;;;;17.07;14.10;;;;;;;24.41;83.36;157646.47;5010563;28;20480;-84
2022/06/20 02:51:56;;;;;;;23.03;14.17;;;;;;;24.16;85.70;157582.34;5024551;28;20551;-84
2022/06/20 02:54:27;;;;;;;19.67;12.10;;;;;;;23.96;85.24;157531.28;5008330;28;20496;-84
2022/06/20 02:56:58;;;;;;;14.50;10.63;;;;;;;23.94;84.63;157526.06;5026758;28;20456;-85
2022/06/20 02:59:28;;;;;;;14.67;11.90;;;;;;;23.91;85.88;157518.22;5025500;28;20472;-84
2022/06/20 03:02:01;;;;;;;12.80;11.53;;;;;;;23.87;87.76;157506.47;5025582;28;20496;-84
2022/06/20 03:04:33;;;;;;;15.57;10.40;;;;;;;23.80;84.72;157489.44;5012370;28;20448;-85
2022/06/20 03:07:02;;;;;;;13.03;9.70;;;;;;;23.82;82.74;157493.41;5030472;28;20487;-84
2022/06/20 03:09:31;;;;;;;11.30;9.47;;;;;;;23.80;84.04;157489.44;5014667;28;20463;-84
2022/06/20 03:11:58;;;;;;;12.50;9.60;;;;;;;23.84;83.65;157498.63;5010869;28;20556;-84
2022/06/20 03:14:27;;;;;;;12.80;9.00;;;;;;;23.83;83.16;157497.28;5012052;28;21053;-83
2022/06/20 03:16:55;;;;;;;14.00;9.87;;;;;;;23.78;82.79;157484.22;5014892;28;20456;-83
2022/06/20 03:19:25;;;;;;;14.70;9.03;;;;;;;23.70;82.87;157463.31;5015349;28;20465;-83
2022/06/20 03:21:55;;;;;;;12.73;10.00;;;;;;;23.68;86.00;157456.78;5010657;28;21094;-84
2022/06/20 03:24:24;;;;;;;13.37;10.10;;;;;;;23.59;86.16;157434.53;5013693;28;20449;-84
2022/06/20 03:26:52;;;;;;;14.53;10.67;;;;;;;23.54;88.06;157422.78;5029131;28;20510;-84
2022/06/20 03:29:20;;;;;;;16.23;9.67;;;;;;;23.53;88.04;157420.22;5012821;28;20540;-84
2022/06/20 03:31:46;;;;;;;13.27;10.30;;;;;;;23.51;89.61;157414.94;5010491;28;20819;-84
2022/06/20 03:34:14;;;;;;;15.03;10.20;;;;;;;23.42;90.18;157390.13;5013870;28;20523;-85
2022/06/20 03:36:42;;;;;;;14.53;10.00;;;;;;;23.40;89.40;157384.91;5028130;28;20894;-83
2022/06/20 03:39:10;;;;;;;13.03;10.50;;;;;;;23.29;89.56;157357.41;4995839;28;20806;-83
2022/06/20 03:41:37;;;;;;;11.50;9.90;;;;;;;23.29;89.21;157356.09;5001742;28;20458;-83
2022/06/20 03:44:07;;;;;;;14.57;10.63;;;;;;;23.17;90.70;157324.69;4993079;28;20417;-84
2022/06/20 03:46:38;;;;;;;14.60;11.87;;;;;;;23.04;89.93;157293.34;5008548;28;20464;-84
2022/06/20 03:49:09;;;;;;;17.40;11.00;;;;;;;22.92;88.50;157260.69;5015010;28;20532;-84
2022/06/20 03:51:38;;;;;;;13.23;10.00;;;;;;;22.88;83.07;157251.53;5010368;28;20502;-85
2022/06/20 03:54:09;;;;;;;12.93;11.13;;;;;;;22.83;85.48;157238.47;5013239;28;20567;-84
2022/06/20 03:56:43;;;;;;;19.03;11.90;;;;;;;22.56;85.65;157167.88;5005743;28;20552;-84
2022/06/20 03:59:14;;;;;;;15.23;12.30;;;;;;;22.50;89.51;157150.91;5002218;28;20485;-85
2022/06/20 04:01:46;;;;;;;15.77;11.80;;;;;;;22.47;92.43;157144.38;5012034;28;20484;-84
2022/06/20 04:04:22;;;;;;;15.10;11.33;;;;;;;22.32;89.96;157105.16;4998933;28;20967;-83
2022/06/20 04:07:02;;;;;;;14.10;12.30;;;;;;;22.30;89.72;157099.94;5013006;28;20778;-83
2022/06/20 04:12:23;;;;;;;13.20;11.17;;;;;;;22.23;90.04;157081.69;5023127;28;20449;-83
2022/06/20 04:14:55;;;;;;;13.33;12.00;;;;;;;22.40;91.25;157126.06;5026453;28;20487;-85
2022/06/20 04:20:18;;;;;;;12.77;11.47;;;;;;;22.25;91.43;157088.22;5006224;28;20798;-85
2022/06/20 04:22:45;;;;;;;14.43;11.70;;;;;;;22.16;91.70;157063.41;5011996;28;20449;-84
2022/06/20 04:25:19;;;;;;;16.43;11.07;;;;;;;22.01;91.60;157024.22;5013431;28;20875;-84
2022/06/20 04:27:50;;;;;;;14.80;11.33;;;;;;;21.95;91.83;157008.56;5010429;28;20557;-84
2022/06/20 04:30:21;;;;;;;15.27;10.80;;;;;;;21.89;92.99;156992.88;5025900;28;20452;-84
2022/06/20 04:32:51;;;;;;;12.70;11.37;;;;;;;21.92;93.29;157002.03;5028543;28;20547;-84
2022/06/20 04:35:20;;;;;;;14.87;10.97;;;;;;;21.80;95.04;156970.63;5027707;28;20433;-84
2022/06/20 04:37:49;;;;;;;19.10;11.67;;;;;;;21.87;94.19;156987.69;5012435;28;20453;-83
2022/06/20 04:40:20;;;;;;;14.10;11.70;;;;;;;21.89;95.33;156992.88;5012586;28;20429;-83
2022/06/20 04:42:51;;;;;;;12.63;11.07;;;;;;;21.88;95.46;156990.25;5012302;28;20797;-84
2022/06/20 04:45:20;;;;;;;12.00;10.70;;;;;;;21.87;95.24;156987.69;5012801;28;20464;-84
2022/06/20 04:47:52;;;;;;;14.63;11.00;;;;;;;21.78;96.05;156965.41;5005265;28;20444;-83
2022/06/20 04:50:21;;;;;;;15.70;11.30;;;;;;;21.71;94.59;156948.44;5009192;28;20517;-84
2022/06/20 04:52:49;;;;;;;12.47;11.13;;;;;;;21.78;96.43;156965.41;5009432;28;20544;-83
2022/06/20 04:55:18;;;;;;;13.00;11.60;;;;;;;21.79;95.88;156969.31;5012323;28;20534;-83
2022/06/20 04:57:45;;;;;;;11.20;10.10;;;;;;;21.85;92.64;156985.00;5011894;28;20589;-83
2022/06/20 05:00:17;;;;;;;12.60;10.37;;;;;;;21.91;90.03;156998.09;5027916;28;20441;-83
2022/06/20 05:02:44;;;;;;;11.50;10.30;;;;;;;21.83;90.46;156979.78;5015170;28;20493;-83
2022/06/20 05:05:14;;;;;;;16.10;11.20;;;;;;;21.61;95.50;156922.31;5029685;28;20448;-83
2022/06/20 05:07:41;;;;;;;14.20;11.13;;;;;;;21.54;97.87;156904.06;5009850;28;20453;-82
2022/06/20 05:10:12;;;;;;;12.33;10.67;;;;;;;21.60;97.77;156918.44;5021532;28;20567;-82
2022/06/20 05:12:42;;;;;;;13.00;11.60;;;;;;;21.71;98.83;156948.44;5021222;28;20453;-82
2022/06/20 05:15:15;;;;;;;14.57;11.20;;;;;;;21.77;98.93;156964.09;5026596;28;20433;-83
2022/06/20 05:17:45;;;;;;;13.33;10.60;;;;;;;21.78;94.93;156965.41;5026797;28;20452;-83
2022/06/20 05:20:21;;;;;;;11.93;10.77;;;;;;;21.89;96.93;156994.19;5027128;28;20806;-82
2022/06/20 05:22:51;;;;;;;14.60;10.77;;;;;;;21.92;96.07;157000.72;5000645;28;20841;-82
2022/06/20 05:25:21;;;;;;;12.40;11.17;;;;;;;21.95;95.94;157009.84;4990314;28;20472;-82
2022/06/20 05:27:53;;;;;;;15.47;13.50;;;;;;;21.73;96.07;156952.38;5025439;28;20456;-82
2022/06/20 05:30:23;;;;;;;15.63;11.90;;;;;;;21.53;98.52;156901.44;5027529;28;20436;-82
2022/06/20 05:32:55;;;;;;;14.33;10.20;;;;;;;21.43;97.22;156874.03;5010594;28;20456;-82
2022/06/20 05:35:25;;;;;;;15.00;11.57;;;;;;;21.47;96.30;156885.75;5011247;28;20429;-82
2022/06/20 05:37:55;;;;;;;15.90;11.73;;;;;;;21.56;97.32;156909.28;5011753;28;20444;-82
2022/06/20 05:40:26;;;;;;;13.57;12.03;;;;;;;21.43;97.44;156874.03;5011151;28;20552;-82
2022/06/20 05:42:52;;;;;;;15.67;12.30;;;;;;;21.48;100.00;156888.38;5024923;28;20910;-84
2022/06/20 05:45:21;;;;;;;14.17;12.10;;;;;;;21.57;100.00;156911.91;5011021;28;20436;-85
2022/06/20 05:47:54;;;;;;;11.77;10.67;;;;;;;21.54;100.00;156904.06;5028058;28;20436;-85
2022/06/20 05:50:41;;;;;;;13.47;11.90;;;;;;;21.64;100.00;156930.16;5026290;28;20477;-84
2022/06/20 05:53:14;;;;;;;14.47;11.90;;;;;;;21.72;100.00;156949.75;5006496;28;20484;-84
2022/06/20 05:55:43;;;;;;;14.27;11.53;;;;;;;21.74;100.00;156956.25;5002562;28;20463;-84
2022/06/20 05:58:14;;;;;;;14.03;11.90;;;;;;;21.78;100.00;156966.75;5026273;28;20562;-84
2022/06/20 06:00:42;;;;;;;16.27;11.97;;;;;;;21.85;100.00;156985.00;5009629;28;20436;-84
2022/06/20 06:03:15;;;;;;;16.27;12.20;;;;;;;21.87;100.00;156987.69;5009347;28;20657;-84
2022/06/20 06:05:43;;;;;;;14.43;12.57;;;;;;;21.83;100.00;156979.78;5011797;28;20444;-84
2022/06/20 06:08:15;;;;;;;15.00;12.43;;;;;;;21.84;100.00;156981.09;5011323;28;20993;-83
2022/06/20 06:10:46;;;;;;;12.40;11.07;;;;;;;21.89;100.00;156994.19;5002811;28;20457;-83
2022/06/20 06:13:20;;;;;;;17.40;12.70;;;;;;;21.88;100.00;156990.25;4994899;28;20460;-83
2022/06/20 06:18:47;;;;;;;12.33;10.90;;;;;;;21.69;99.19;156941.91;4999419;28;20429;-76
2022/06/20 06:21:13;;;;;;;14.17;12.63;;;;;;;21.80;99.43;156971.94;5008193;28;20477;-77
2022/06/20 06:23:41;;;;;;;12.97;11.67;;;;;;;21.66;100.00;156935.38;5026707;28;20840;-76
2022/06/20 06:26:08;;;;;;;13.83;12.20;;;;;;;21.77;100.00;156962.78;5012029;28;20437;-76
2022/06/20 06:28:35;;;;;;;13.23;11.90;;;;;;;21.70;100.00;156945.84;5010961;28;20531;-76
2022/06/20 06:31:17;;;;;;;17.77;12.43;;;;;;;21.62;100.00;156924.97;5009431;28;20547;-76
2022/06/20 06:33:49;;;;;;;15.13;11.60;;;;;;;21.69;100.00;156943.22;5026124;28;20491;-76
2022/06/20 06:36:18;;;;;;;13.50;12.20;;;;;;;21.92;100.00;157000.72;5009421;28;21034;-76
2022/06/20 06:38:48;;;;;;;14.67;11.97;;;;;;;22.14;100.00;157058.16;5011547;28;20520;-77
2022/06/20 06:41:21;;;;;;;12.97;11.57;;;;;;;22.38;100.00;157120.84;5012009;28;20444;-77
2022/06/20 06:43:48;;;;;;;16.00;11.17;;;;;;;22.89;98.79;157254.16;5015406;28;20962;-77
2022/06/20 06:46:19;;;;;;;16.03;12.80;;;;;;;23.34;96.62;157370.47;5012828;28;20476;-77
2022/06/20 06:48:51;;;;;;;11.77;10.63;;;;;;;23.60;93.38;157437.16;4997917;28;20495;-77
2022/06/20 06:51:21;;;;;;;11.43;10.20;;;;;;;23.90;88.22;157515.63;5016003;28;20440;-77
2022/06/20 06:53:51;;;;;;;15.90;10.97;;;;;;;23.98;89.37;157535.25;5014656;28;20468;-77
2022/06/20 06:56:21;;;;;;;17.20;13.17;;;;;;;24.02;89.29;157545.69;5015625;28;20442;-76
2022/06/20 06:58:55;;;;;;;14.23;11.60;;;;;;;23.89;90.96;157513.00;5014620;28;20568;-77
2022/06/20 07:01:25;;;;;;;11.90;10.60;;;;;;;23.95;90.33;157528.69;5020086;28;20467;-77
2022/06/20 07:03:56;;;;;;;16.07;11.60;;;;;;;24.02;89.97;157545.69;5015158;28;20503;-77
2022/06/20 07:06:26;;;;;;;12.63;11.50;;;;;;;23.85;90.43;157501.25;5009937;28;20768;-77
2022/06/20 07:08:56;;;;;;;12.47;10.83;;;;;;;23.89;91.17;157511.69;5013983;28;20571;-75
2022/06/20 07:11:24;;;;;;;12.77;11.57;;;;;;;24.14;94.15;157578.47;5015355;28;20440;-76
2022/06/20 07:13:58;;;;;;;11.80;10.60;;;;;;;24.22;89.49;157598.06;5013466;28;20471;-75
2022/06/20 07:16:28;;;;;;;11.43;10.27;;;;;;;24.07;87.33;157560.06;5015535;28;20555;-76
2022/06/20 07:18:57;;;;;;;12.83;9.63;;;;;;;24.34;84.33;157629.44;5027524;28;20452;-74
2022/06/20 07:21:25;;;;;;;11.70;10.37;;;;;;;24.39;84.33;157642.50;5009739;28;20568;-75
2022/06/20 07:23:55;;;;;;;11.53;9.90;;;;;;;24.86;83.39;157764.19;5001939;28;20993;-75
2022/06/20 07:26:22;;;;;;;12.63;10.97;;;;;;;25.23;81.32;157861.03;5012908;28;20454;-75
2022/06/20 07:28:53;;;;;;;12.70;11.33;;;;;;;25.31;79.71;157881.97;5025598;28;20452;-75
2022/06/20 07:31:24;;;;;;;16.93;12.87;;;;;;;25.68;86.53;157976.28;5030099;28;21051;-75
2022/06/20 07:33:52;;;;;;;16.23;12.87;;;;;;;25.77;77.65;157999.81;5013430;28;20471;-75
2022/06/20 07:36:25;;;;;;;13.67;12.20;;;;;;;26.17;85.83;158104.63;5014885;28;20571;-74
2022/06/20 07:38:55;;;;;;;13.87;12.30;;;;;;;26.35;76.64;158151.75;5007460;28;20459;-75
2022/06/20 07:41:26;;;;;;;13.20;11.90;;;;;;;26.26;74.60;158126.88;4994622;28;20450;-75
2022/06/20 07:43:57;;;;;;;14.40;12.30;;;;;;;26.16;73.62;158101.97;5008046;28;20452;-75
2022/06/20 07:46:27;;;;;;;14.33;10.70;;;;;;;26.65;76.24;158229.03;5028499;28;20498;-75
2022/06/20 07:48:57;;;;;;;14.23;12.00;;;;;;;27.05;75.96;158333.91;5009350;28;20456;-76
2022/06/20 07:51:29;;;;;;;12.30;11.03;;;;;;;27.14;77.11;158356.13;5010300;28;20453;-76
2022/06/20 07:53:59;;;;;;;13.37;11.17;;;;;;;27.69;72.43;158499.06;5012853;28;20484;-75
2022/06/20 07:56:32;;;;;;;11.10;9.97;;;;;;;27.87;71.62;158544.91;5009447;28;20437;-75
2022/06/20 07:59:11;;;;;;;11.10;10.00;;;;;;;28.22;67.36;158636.75;5007615;28;20484;-76
2022/06/20 08:01:42;;;;;;;11.03;9.77;;;;;;;28.67;69.60;158753.50;5009114;28;21193;-74
2022/06/20 08:04:10;;;;;;;12.03;10.73;;;;;;;28.83;63.93;158796.75;5009962;28;21189;-75
2022/06/20 08:06:43;;;;;;;17.47;10.27;;;;;;;29.07;66.57;158857.13;5010048;28;21219;-75
2022/06/20 08:09:13;;;;;;;11.03;10.00;;;;;;;28.75;66.04;158775.75;5005435;28;20453;-75
2022/06/20 08:11:45;;;;;;;12.77;10.30;;;;;;;29.02;61.48;158844.00;5006988;28;20534;-75
2022/06/20 08:14:26;;;;;;;10.90;9.77;;;;;;;29.26;61.38;158906.97;5013301;28;20596;-75
2022/06/20 08:16:55;;;;;;;10.83;9.80;;;;;;;29.18;59.89;158885.94;5013978;28;20448;-74
2022/06/20 08:19:32;;;;;;;12.83;11.13;;;;;;;28.59;59.09;158733.78;5025266;28;20492;-75
2022/06/20 08:22:04;;;;;;;10.03;9.03;;;;;;;28.68;63.06;158757.41;5012484;28;20590;-75
2022/06/20 08:24:34;;;;;;;10.10;9.20;;;;;;;28.79;59.07;158784.94;5011692;28;20453;-75
2022/06/20 08:27:03;;;;;;;11.73;9.33;;;;;;;28.98;60.23;158836.13;5013250;28;20468;-75
2022/06/20 08:29:36;;;;;;;10.37;9.13;;;;;;;29.70;58.55;159022.47;5005227;28;20543;-75
2022/06/20 08:32:10;;;;;;;12.10;10.90;;;;;;;29.20;59.02;158891.22;5008733;28;20511;-75
2022/06/20 08:34:41;;;;;;;12.47;9.80;;;;;;;29.10;59.63;158865.00;5011214;28;21032;-75
2022/06/20 08:37:14;;;;;;;12.03;10.80;;;;;;;29.25;59.34;158904.38;5010450;28;20452;-76
2022/06/20 08:39:45;;;;;;;9.77;8.60;;;;;;;29.75;56.03;159035.59;5009727;28;20540;-75
2022/06/20 08:42:39;;;;;;;10.00;9.00;;;;;;;29.46;53.01;158959.50;5025148;28;20463;-75
2022/06/20 08:45:31;;;;;;;11.33;9.40;;;;;;;29.04;57.28;158850.56;5008449;28;20461;-75
2022/06/20 08:48:30;;;;;;;9.73;8.80;;;;;;;28.95;54.88;158828.25;5008626;28;20461;-75
2022/06/20 08:51:22;;;;;;;10.00;9.10;;;;;;;29.04;53.16;158850.56;5008536;28;20456;-75
2022/06/20 08:54:17;;;;;;;9.80;8.13;;;;;;;29.30;54.05;158917.50;5006213;28;20871;-75
2022/06/20 08:56:55;;;;;;;9.30;8.50;;;;;;;29.75;55.76;159035.59;5020546;28;20448;-75
2022/06/20 08:59:38;;;;;;;11.60;8.30;;;;;;;29.56;55.91;158985.72;5010263;28;20595;-75
2022/06/20 09:02:18;;;;;;;10.27;9.03;;;;;;;29.44;52.86;158954.25;5001534;28;20460;-74
2022/06/20 09:05:01;;;;;;;11.30;8.10;;;;;;;29.33;52.91;158926.72;5027268;28;20464;-75
2022/06/20 09:07:54;;;;;;;10.50;9.50;;;;;;;29.84;55.83;159059.25;5002854;28;20974;-75
2022/06/20 09:10:33;;;;;;;11.57;8.60;;;;;;;30.36;50.05;159193.19;4997615;28;20484;-75
2022/06/20 09:13:27;;;;;;;10.90;8.60;;;;;;;30.85;53.11;159321.84;5027881;28;20442;-75
2022/06/20 09:16:00;;;;;;;10.80;9.90;;;;;;;30.88;54.51;159329.75;5009534;28;20472;-75
2022/06/20 09:18:36;;;;;;;10.90;8.20;;;;;;;31.41;49.58;159467.69;5005431;28;21046;-75
2022/06/20 09:21:07;;;;;;;10.47;9.57;;;;;;;30.99;52.48;159358.69;5010996;28;20688;-75
2022/06/20 09:23:43;;;;;;;9.13;8.23;;;;;;;31.18;50.39;159408.63;5025939;28;20939;-75
2022/06/20 09:26:15;;;;;;;10.63;8.67;;;;;;;31.45;48.93;159476.91;5003412;28;20467;-75
2022/06/20 09:29:04;;;;;;;10.13;9.07;;;;;;;31.38;47.96;159458.50;5010668;28;20457;-74
2022/06/20 09:31:54;;;;;;;10.40;9.27;;;;;;;31.04;48.31;159370.50;5025640;28;20543;-75
2022/06/20 09:34:43;;;;;;;11.07;8.83;;;;;;;31.14;49.08;159396.75;5028450;28;20456;-75
2022/06/20 09:37:22;;;;;;;10.37;9.20;;;;;;;31.16;47.94;159402.06;5005114;28;20440;-75
2022/06/20 09:39:59;;;;;;;10.17;9.30;;;;;;;31.24;47.67;159424.34;5026177;28;20488;-75
2022/06/20 09:42:34;;;;;;;12.77;8.93;;;;;;;30.44;53.25;159214.22;5011044;28;20579;-75
2022/06/20 09:45:09;;;;;;;15.17;9.57;;;;;;;30.35;50.81;159190.50;5009788;28;20440;-75
2022/06/20 09:47:43;;;;;;;10.77;9.63;;;;;;;30.05;51.27;159114.38;5011997;28;20435;-75
2022/06/20 09:50:26;;;;;;;12.30;9.77;;;;;;;30.16;54.55;159141.94;5004503;28;20552;-81
2022/06/20 09:53:02;;;;;;;11.10;9.70;;;;;;;30.26;53.69;159166.91;5009920;28;20547;-81
2022/06/20 09:55:34;;;;;;;9.90;9.00;;;;;;;30.38;49.44;159198.44;5025993;28;20539;-81
2022/06/20 09:58:11;;;;;;;10.73;9.47;;;;;;;30.12;54.24;159132.78;5011402;28;20590;-81
2022/06/20 10:00:43;;;;;;;9.77;8.80;;;;;;;29.95;51.43;159088.13;5010822;28;20868;-81
2022/06/20 10:03:20;;;;;;;14.70;9.47;;;;;;;29.99;50.60;159098.66;5012264;28;20445;-81
2022/06/20 10:05:52;;;;;;;10.73;9.60;;;;;;;29.90;49.54;159073.69;5009590;28;20514;-81
2022/06/20 10:08:30;;;;;;;10.80;9.80;;;;;;;29.88;54.10;159069.78;5010116;28;20483;-81
2022/06/20 10:11:04;;;;;;;10.50;9.50;;;;;;;29.72;50.60;159026.41;5006350;28;20449;-81
2022/06/20 10:13:39;;;;;;;10.87;9.80;;;;;;;28.90;51.55;158813.81;5020165;28;20545;-81
2022/06/20 10:16:12;;;;;;;10.93;9.83;;;;;;;28.05;53.87;158592.16;5011661;28;20468;-80
2022/06/20 10:18:44;;;;;;;14.80;11.30;;;;;;;27.61;55.38;158479.41;5016414;28;20535;-81
2022/06/20 10:21:21;;;;;;;12.03;9.30;;;;;;;27.47;54.19;158442.69;5014965;28;20911;-81
2022/06/20 10:24:01;;;;;;;10.40;9.43;;;;;;;27.54;54.19;158461.03;5016751;28;20456;-81
2022/06/20 10:26:54;;;;;;;14.53;8.87;;;;;;;27.69;54.29;158500.31;5009499;28;20528;-81
2022/06/20 10:29:37;;;;;;;9.63;8.63;;;;;;;27.79;53.81;158525.25;5016015;28;20503;-81
2022/06/20 10:32:18;;;;;;;12.80;9.60;;;;;;;27.99;57.07;158577.69;5013827;28;20926;-81
2022/06/20 10:37:42;;;;;;;11.90;9.10;;;;;;;28.09;55.91;158602.66;5006848;28;21031;-81
2022/06/20 10:40:15;;;;;;;10.70;9.63;;;;;;;28.22;55.72;158636.75;5016483;28;20535;-81
2022/06/20 10:42:50;;;;;;;12.30;8.83;;;;;;;28.27;58.37;158651.19;5014615;28;20448;-81
2022/06/20 10:45:33;;;;;;;9.00;8.10;;;;;;;28.33;54.75;158666.88;5007599;28;20648;-81
2022/06/20 10:48:29;;;;;;;9.73;8.83;;;;;;;28.39;55.35;158682.63;4983118;28;20510;-80
2022/06/20 10:51:02;;;;;;;9.60;8.70;;;;;;;28.41;55.02;158685.25;5013840;28;20548;-80
2022/06/20 10:53:35;;;;;;;9.10;8.20;;;;;;;28.38;55.04;158679.97;5027476;28;20464;-80
2022/06/20 10:56:10;;;;;;;9.20;7.87;;;;;;;28.28;53.18;158652.44;5015989;28;20856;-81
2022/06/20 10:58:48;;;;;;;8.87;6.97;;;;;;;28.56;52.98;158725.91;5014382;28;20486;-80
2022/06/20 11:01:20;;;;;;;9.07;6.60;;;;;;;28.88;51.02;158808.59;5014122;28;20821;-81
2022/06/20 11:04:02;;;;;;;7.20;6.50;;;;;;;29.31;53.42;158920.16;5010557;28;20456;-81
2022/06/20 11:06:38;;;;;;;9.10;6.50;;;;;;;29.42;49.79;158948.97;5015965;28;20475;-81
2022/06/20 11:09:10;;;;;;;10.00;6.50;;;;;;;29.45;47.79;158956.84;5015700;28;20448;-80
2022/06/20 11:11:43;;;;;;;10.43;7.07;;;;;;;29.43;47.74;158951.63;5015515;28;20446;-82
2022/06/20 11:14:15;;;;;;;9.90;6.37;;;;;;;29.10;50.79;158866.28;5012740;28;20949;-76
2022/06/20 11:16:47;;;;;;;6.70;6.10;;;;;;;29.09;52.01;158863.69;5013523;28;20578;-76
2022/06/20 11:19:23;;;;;;;9.13;6.53;;;;;;;29.04;53.94;158850.56;5012293;28;20485;-76
2022/06/20 11:22:01;;;;;;;6.47;5.70;;;;;;;28.94;50.03;158825.59;5013538;28;20502;-75
2022/06/20 11:24:38;;;;;;;10.13;6.33;;;;;;;28.80;47.86;158788.91;5012737;28;20444;-75
2022/06/20 11:27:16;;;;;;;8.00;6.60;;;;;;;28.67;51.83;158754.81;5006066;28;20447;-75
2022/06/20 11:29:59;;;;;;;6.27;5.67;;;;;;;28.70;47.82;158762.66;5010838;28;20902;-75
2022/06/20 11:32:36;;;;;;;6.20;5.67;;;;;;;28.80;51.98;158788.91;5016005;28;20433;-75
2022/06/20 11:35:21;;;;;;;6.20;4.83;;;;;;;28.85;49.33;158802.03;5017997;28;20471;-75
2022/06/20 11:38:03;;;;;;;5.50;5.10;;;;;;;28.88;49.09;158809.91;5025205;28;20847;-75
2022/06/20 11:40:51;;;;;;;6.43;5.83;;;;;;;28.81;50.73;158791.50;5016738;28;20499;-76
2022/06/20 11:43:50;;;;;;;7.30;6.60;;;;;;;28.44;52.66;158694.41;5003205;28;20547;-76
2022/06/20 11:46:45;;;;;;;8.73;7.20;;;;;;;28.46;55.57;158698.38;5029727;28;20927;-75